Milton, FL (32570)

2:40 PM CST on February 26, 2017 (GMT -0600)
JnK Ranch | | Change Station

Elev 210 ft 30.76 °N, 87.05 °W | Updated 37 seconds ago

Overcast
Overcast
70.5 °F
Feels Like 75 °F
N
3.0
Wind Variable Wind from SSE
Gusts 8.0 mph

Today
High -- | Low -- °F
--% Chance of Precip.
Yesterday
High -- | Low -- °F
Precip. -- in
Pressure 30.12 in
Visibility 10.0 miles
Clouds Clear
Heat Index 75 °F
Dew Point 33 °F
Humidity 25%
Rainfall 0.00 in
Snow Depth Not available.
6:17 AM 5:44 PM
New Moon, 0% visible
METAR KNSE 261956Z AUTO VRB04KT 10SM -RA CLR 20/M05 A3015 RMK AO2 SLP197 P0000 T02001050 $
Pressure 30.12 in
Visibility 10.0 miles
Clouds Clear
Heat Index 75 °F
Dew Point 33 °F
Humidity 25%
Rainfall 0.00 in
Snow Depth Not available.
6:17 AM 5:44 PM
New Moon, 0% visible
METAR KNSE 261956Z AUTO VRB04KT 10SM -RA CLR 20/M05 A3015 RMK AO2 SLP197 P0000 T02001050 $

Get Your Daily Forecast Email!

Thanks for signing up!

Be on the lookout for a verification email in your inbox.

You'll start receiving the daily forecast at 8 AM.

×

10-Day Weather Forecast

Almanac

Astronomy

Feb. 26, 2017 Rise Set
Actual Time
Civil Twilight
Nautical Twilight
Astronomical Twilight
Moon
Length of Visible Light
Length of Day
Tomorrow will be .
, % of the Moon is Illuminated

Today's Extremes

State Highs State Lows

Community

WunderPhotos

Upload Photos

1,962,540 photos uploaded!

WunderBlog® & News

Nearby

Air Quality

  Air Quality AQ Index Pollutant
Not available.

Snow Depth

Station Depth Elevation

Earthquake Activity

City Distance Mag. Time & Date
Minimum magnitude displayed is 2.5.

Coastal Water Temperatures

Place Temperature

Stations

Nearby Weather Stations

Station Location Temp. Windchill Dew Point Humidity Wind Precip. Elev Updated Type
                   

Watches & Warnings

There are currently no watches in effect.